createdAt,value
2017-08-03T00:00:00.003Z,74806
2017-08-03T00:00:10.135Z,74802
2017-08-03T00:00:19.973Z,74790
2017-08-03T00:00:30.108Z,74800
2017-08-03T00:00:39.949Z,74801
2017-08-03T00:00:50.098Z,74808
2017-08-03T00:00:59.935Z,74809
2017-08-03T00:01:10.068Z,74810
2017-08-03T00:01:20.183Z,74811
2017-08-03T00:01:30.311Z,74810
2017-08-03T00:01:40.153Z,74805
2017-08-03T00:01:50.275Z,74806
2017-08-03T00:02:00.387Z,74810
2017-08-03T00:02:10.220Z,74804
2017-08-03T00:02:20.348Z,74809
2017-08-03T00:02:30.478Z,74802
2017-08-03T00:02:40.614Z,74800
2017-08-03T00:02:50.769Z,74801
2017-08-03T00:03:00.906Z,74802
2017-08-03T00:03:11.038Z,74803
2017-08-03T00:03:21.174Z,74806
2017-08-03T00:03:31.291Z,74804
2017-08-03T00:03:41.146Z,74815
2017-08-03T00:03:51.255Z,74815
2017-08-03T00:04:01.416Z,74804
2017-08-03T00:04:11.549Z,74802
2017-08-03T00:04:21.677Z,74803
2017-08-03T00:04:31.511Z,74796
2017-08-03T00:04:41.337Z,74791
2017-08-03T00:04:51.172Z,74791
2017-08-03T00:05:01.011Z,74790
2017-08-03T00:05:10.862Z,74794
2017-08-03T00:05:21.008Z,74792
2017-08-03T00:05:31.136Z,74793
2017-08-03T00:05:41.253Z,74797
2017-08-03T00:05:51.398Z,74800
2017-08-03T00:06:01.238Z,74802
2017-08-03T00:06:11.073Z,74805
2017-08-03T00:06:21.192Z,74804
2017-08-03T00:06:31.313Z,74804
2017-08-03T00:06:41.147Z,74810
2017-08-03T00:06:50.990Z,74813
2017-08-03T00:07:01.116Z,74814
2017-08-03T00:07:11.237Z,74813
2017-08-03T00:07:21.355Z,74816
2017-08-03T00:07:31.477Z,74819
2017-08-03T00:07:41.598Z,74811
2017-08-03T00:07:51.708Z,74800
2017-08-03T00:08:01.544Z,74799
2017-08-03T00:08:11.671Z,74802
2017-08-03T00:08:21.505Z,74809
2017-08-03T00:08:31.355Z,74810
2017-08-03T00:08:41.479Z,74819
2017-08-03T00:08:51.602Z,74817
2017-08-03T00:09:01.722Z,74817
2017-08-03T00:09:11.555Z,74813
2017-08-03T00:09:21.381Z,74814
2017-08-03T00:09:31.508Z,74817
2017-08-03T00:09:41.642Z,74815
2017-08-03T00:09:51.774Z,74813
2017-08-03T00:10:01.333Z,74810
2017-08-03T00:10:11.165Z,74810
2017-08-03T00:10:21.278Z,74808
2017-08-03T00:10:31.412Z,74809
2017-08-03T00:10:41.262Z,74809
2017-08-03T00:10:51.387Z,74810
2017-08-03T00:11:01.225Z,74808
2017-08-03T00:11:11.336Z,74815
2017-08-03T00:11:21.454Z,74814
2017-08-03T00:11:31.294Z,74811
2017-08-03T00:11:41.427Z,74804
2017-08-03T00:11:51.264Z,74803
2017-08-03T00:12:00.822Z,74802
2017-08-03T00:12:10.660Z,74806
2017-08-03T00:12:20.787Z,74811
2017-08-03T00:12:30.613Z,74812
2017-08-03T00:12:40.748Z,74808
2017-08-03T00:12:50.879Z,74810
2017-08-03T00:13:00.707Z,74810
2017-08-03T00:13:10.839Z,74810
2017-08-03T00:13:20.391Z,74808
2017-08-03T00:13:30.527Z,74811
2017-08-03T00:13:40.638Z,74805
2017-08-03T00:13:50.453Z,74798
2017-08-03T00:14:00.576Z,74801
2017-08-03T00:14:10.414Z,74802
2017-08-03T00:14:20.546Z,74797
2017-08-03T00:14:30.102Z,74804
2017-08-03T00:14:40.233Z,74801
2017-08-03T00:14:50.345Z,74796
2017-08-03T00:15:00.476Z,74791
2017-08-03T00:15:10.310Z,74792
2017-08-03T00:15:19.564Z,74796
2017-08-03T00:15:29.404Z,74803
2017-08-03T00:15:39.255Z,74804
2017-08-03T00:15:49.388Z,74799
2017-08-03T00:15:59.222Z,74802
2017-08-03T00:16:09.355Z,74806
2017-08-03T00:16:19.478Z,74811
2017-08-03T00:16:29.618Z,74808
2017-08-03T00:16:39.759Z,74811
2017-08-03T00:16:49.882Z,74802
2017-08-03T00:17:00.005Z,74801
2017-08-03T00:17:10.139Z,74805
2017-08-03T00:17:20.263Z,74799
2017-08-03T00:17:30.398Z,74804
2017-08-03T00:17:40.523Z,74805
2017-08-03T00:17:50.654Z,74809
2017-08-03T00:18:00.513Z,74806
2017-08-03T00:18:10.369Z,74795
2017-08-03T00:18:20.509Z,74787
2017-08-03T00:18:30.637Z,74782
2017-08-03T00:18:40.479Z,74778
2017-08-03T00:18:49.736Z,74772
2017-08-03T00:18:59.860Z,74780
2017-08-03T00:19:09.986Z,74787
2017-08-03T00:19:20.130Z,74788
2017-08-03T00:19:30.267Z,74793
2017-08-03T00:19:40.126Z,74794
2017-08-03T00:19:50.235Z,74796
2017-08-03T00:20:00.354Z,74799
2017-08-03T00:20:09.954Z,74804
2017-08-03T00:20:20.073Z,74803
2017-08-03T00:20:30.198Z,74806
2017-08-03T00:20:40.311Z,74799
2017-08-03T00:20:50.427Z,74799
2017-08-03T00:21:00.555Z,74796
2017-08-03T00:21:10.400Z,74800
2017-08-03T00:21:20.521Z,74795
2017-08-03T00:21:30.647Z,74788
2017-08-03T00:21:40.481Z,74787
2017-08-03T00:21:50.607Z,74785
2017-08-03T00:22:00.449Z,74789
2017-08-03T00:22:10.580Z,74792
2017-08-03T00:22:20.704Z,74790
2017-08-03T00:22:30.537Z,74795
2017-08-03T00:22:40.654Z,74795
2017-08-03T00:22:50.766Z,74802
2017-08-03T00:23:00.611Z,74800
2017-08-03T00:23:10.451Z,74795
2017-08-03T00:23:20.281Z,74792
2017-08-03T00:23:30.110Z,74791
2017-08-03T00:23:39.664Z,74791
2017-08-03T00:23:49.492Z,74795
2017-08-03T00:23:59.318Z,74800
2017-08-03T00:24:09.142Z,74798
2017-08-03T00:24:19.284Z,74799
2017-08-03T00:24:29.118Z,74784
2017-08-03T00:24:39.243Z,74783
2017-08-03T00:24:49.368Z,74784
2017-08-03T00:24:59.221Z,74788
2017-08-03T00:25:09.349Z,74793
2017-08-03T00:25:19.196Z,74788
2017-08-03T00:25:29.326Z,74782
2017-08-03T00:25:38.868Z,74784
2017-08-03T00:25:48.983Z,74788
2017-08-03T00:25:59.113Z,74791
2017-08-03T00:26:09.233Z,74796
2017-08-03T00:26:19.071Z,74791
2017-08-03T00:26:29.223Z,74799
2017-08-03T00:26:39.076Z,74806
2017-08-03T00:26:48.625Z,74802
2017-08-03T00:26:58.747Z,74797
2017-08-03T00:27:08.866Z,74794
2017-08-03T00:27:18.447Z,74797
2017-08-03T00:27:28.576Z,74794
2017-08-03T00:27:38.129Z,74793
2017-08-03T00:27:47.678Z,74792
2017-08-03T00:27:57.823Z,74784
2017-08-03T00:28:07.968Z,74784
2017-08-03T00:28:18.093Z,74788
2017-08-03T00:28:28.221Z,74788
2017-08-03T00:28:38.352Z,74790
2017-08-03T00:28:48.207Z,74790
2017-08-03T00:28:58.334Z,74787
2017-08-03T00:29:08.168Z,74780
2017-08-03T00:29:18.288Z,74784
2017-08-03T00:29:28.411Z,74788
2017-08-03T00:29:38.543Z,74789
2017-08-03T00:29:48.652Z,74791
2017-08-03T00:29:58.777Z,74794
2017-08-03T00:30:08.937Z,74796
2017-08-03T00:30:19.062Z,74794
2017-08-03T00:30:29.190Z,74794
2017-08-03T00:30:38.729Z,74792
2017-08-03T00:30:48.855Z,74792
2017-08-03T00:30:58.682Z,74786
2017-08-03T00:31:08.521Z,74788
2017-08-03T00:31:18.653Z,74785
2017-08-03T00:31:28.489Z,74784
2017-08-03T00:31:38.332Z,74785
2017-08-03T00:31:48.467Z,74783
2017-08-03T00:31:58.011Z,74788
2017-08-03T00:32:07.841Z,74785
2017-08-03T00:32:17.977Z,74786
2017-08-03T00:32:28.094Z,74789
2017-08-03T00:32:38.230Z,74784
2017-08-03T00:32:48.362Z,74784
2017-08-03T00:32:58.194Z,74781
2017-08-03T00:33:08.040Z,74784
2017-08-03T00:33:18.153Z,74784
2017-08-03T00:33:28.287Z,74791
2017-08-03T00:33:38.426Z,74795
2017-08-03T00:33:48.568Z,74792
2017-08-03T00:33:58.678Z,74788
2017-08-03T00:34:08.797Z,74789
2017-08-03T00:34:18.914Z,74788
2017-08-03T00:34:29.048Z,74790
2017-08-03T00:34:38.882Z,74791
2017-08-03T00:34:48.718Z,74790
2017-08-03T00:34:58.555Z,74790
2017-08-03T00:35:08.102Z,74788
2017-08-03T00:35:17.957Z,74781
2017-08-03T00:35:28.119Z,74779
2017-08-03T00:35:38.261Z,74777
2017-08-03T00:35:48.398Z,74783
2017-08-03T00:35:58.508Z,74786
2017-08-03T00:36:08.659Z,74788
2017-08-03T00:36:18.226Z,74786
2017-08-03T00:36:28.354Z,74785
2017-08-03T00:36:38.186Z,74787
2017-08-03T00:36:48.025Z,74787
2017-08-03T00:36:57.853Z,74790
2017-08-03T00:37:07.971Z,74787
2017-08-03T00:37:18.094Z,74786
2017-08-03T00:37:27.948Z,74789
2017-08-03T00:37:38.092Z,74789
2017-08-03T00:37:48.230Z,74787
2017-08-03T00:37:58.357Z,74787
2017-08-03T00:38:08.487Z,74789
2017-08-03T00:38:18.325Z,74790
2017-08-03T00:38:28.454Z,74791
2017-08-03T00:38:38.591Z,74786
2017-08-03T00:38:48.719Z,74786
2017-08-03T00:38:58.542Z,74789
2017-08-03T00:39:08.687Z,74785
2017-08-03T00:39:18.805Z,74783
2017-08-03T00:39:28.936Z,74785
2017-08-03T00:39:38.784Z,74786
2017-08-03T00:39:48.914Z,74782
2017-08-03T00:39:58.763Z,74786
2017-08-03T00:40:08.321Z,74787
2017-08-03T00:40:18.164Z,74789
2017-08-03T00:40:28.016Z,74793
2017-08-03T00:40:38.144Z,74792
2017-08-03T00:40:48.287Z,74787
2017-08-03T00:40:58.122Z,74783
2017-08-03T00:41:08.257Z,74779
2017-08-03T00:41:18.104Z,74783
2017-08-03T00:41:27.948Z,74782
2017-08-03T00:41:37.782Z,74784
2017-08-03T00:41:47.627Z,74786
2017-08-03T00:41:57.754Z,74783
2017-08-03T00:42:07.298Z,74783
2017-08-03T00:42:17.439Z,74782
2017-08-03T00:42:27.298Z,74786
2017-08-03T00:42:37.442Z,74787
2017-08-03T00:42:47.278Z,74786
2017-08-03T00:42:57.107Z,74783
2017-08-03T00:43:06.939Z,74781
2017-08-03T00:43:17.067Z,74781
2017-08-03T00:43:27.194Z,74781
2017-08-03T00:43:37.034Z,74781
2017-08-03T00:43:46.869Z,74783
2017-08-03T00:43:57.007Z,74791
2017-08-03T00:44:07.125Z,74788
2017-08-03T00:44:17.253Z,74786
2017-08-03T00:44:27.387Z,74783
2017-08-03T00:44:37.538Z,74782
2017-08-03T00:44:47.370Z,74783
2017-08-03T00:44:57.214Z,74784
2017-08-03T00:45:07.343Z,74785
2017-08-03T00:45:17.469Z,74785
2017-08-03T00:45:27.597Z,74783
2017-08-03T00:45:37.718Z,74785
2017-08-03T00:45:47.563Z,74787
2017-08-03T00:45:57.676Z,74787
2017-08-03T00:46:07.531Z,74786
2017-08-03T00:46:17.642Z,74787
2017-08-03T00:46:27.754Z,74788
2017-08-03T00:46:37.599Z,74791
2017-08-03T00:46:47.721Z,74792
2017-08-03T00:46:57.852Z,74791
2017-08-03T00:47:07.696Z,74786
2017-08-03T00:47:17.814Z,74787
2017-08-03T00:47:27.650Z,74783
2017-08-03T00:47:37.777Z,74783
2017-08-03T00:47:47.911Z,74785
2017-08-03T00:47:58.023Z,74784
2017-08-03T00:48:08.164Z,74787
2017-08-03T00:48:18.291Z,74785
2017-08-03T00:48:28.413Z,74785
2017-08-03T00:48:38.246Z,74786
2017-08-03T00:48:48.088Z,74785
2017-08-03T00:48:58.225Z,74786
2017-08-03T00:49:07.771Z,74786
2017-08-03T00:49:17.894Z,74788
2017-08-03T00:49:27.166Z,74784
2017-08-03T00:49:37.008Z,74786
2017-08-03T00:49:46.842Z,74786
2017-08-03T00:49:56.395Z,74784
2017-08-03T00:50:06.247Z,74782
2017-08-03T00:50:16.087Z,74780
2017-08-03T00:50:25.640Z,74784
2017-08-03T00:50:35.786Z,74783
2017-08-03T00:50:45.919Z,74782
2017-08-03T00:50:55.759Z,74785
2017-08-03T00:51:05.597Z,74786
2017-08-03T00:51:15.150Z,74780
2017-08-03T00:51:25.270Z,74783
2017-08-03T00:51:35.419Z,74780
2017-08-03T00:51:45.552Z,74774
2017-08-03T00:51:55.678Z,74776
2017-08-03T00:52:05.798Z,74775
2017-08-03T00:52:15.933Z,74779
2017-08-03T00:52:25.771Z,74783
2017-08-03T00:52:35.606Z,74781
2017-08-03T00:52:45.442Z,74772
2017-08-03T00:52:55.569Z,74762
2017-08-03T00:53:05.680Z,74767
2017-08-03T00:53:15.804Z,74779
2017-08-03T00:53:25.940Z,74782
2017-08-03T00:53:35.772Z,74780
2017-08-03T00:53:45.909Z,74774
2017-08-03T00:53:56.030Z,74773
2017-08-03T00:54:05.582Z,74771
2017-08-03T00:54:15.420Z,74773
2017-08-03T00:54:25.266Z,74773
2017-08-03T00:54:35.390Z,74778
2017-08-03T00:54:45.529Z,74781
2017-08-03T00:54:55.366Z,74775
2017-08-03T00:55:04.942Z,74780
2017-08-03T00:55:14.800Z,74778
2017-08-03T00:55:24.647Z,74773
2017-08-03T00:55:34.472Z,74765
2017-08-03T00:55:44.609Z,74770
2017-08-03T00:55:54.443Z,74767
2017-08-03T00:56:04.571Z,74770
2017-08-03T00:56:14.411Z,74772
2017-08-03T00:56:24.545Z,74769
2017-08-03T00:56:34.388Z,74772
2017-08-03T00:56:44.235Z,74774
2017-08-03T00:56:54.076Z,74773
2017-08-03T00:57:03.914Z,74768
2017-08-03T00:57:14.051Z,74771
2017-08-03T00:57:24.170Z,74772
2017-08-03T00:57:34.035Z,74769
2017-08-03T00:57:44.164Z,74772
2017-08-03T00:57:54.019Z,74773
2017-08-03T00:58:04.144Z,74768
2017-08-03T00:58:13.980Z,74770
2017-08-03T00:58:24.098Z,74773
2017-08-03T00:58:34.218Z,74773
2017-08-03T00:58:44.073Z,74772
2017-08-03T00:58:54.221Z,74772
2017-08-03T00:59:04.339Z,74770
2017-08-03T00:59:14.462Z,74770
2017-08-03T00:59:24.593Z,74772
2017-08-03T00:59:34.718Z,74770
2017-08-03T00:59:44.560Z,74769
2017-08-03T00:59:54.389Z,74769
2017-08-03T01:00:04.222Z,74772
2017-08-03T01:00:14.359Z,74777
2017-08-03T01:00:24.491Z,74777
2017-08-03T01:00:34.031Z,74776
2017-08-03T01:00:43.595Z,74775
2017-08-03T01:00:53.731Z,74775
2017-08-03T01:01:03.868Z,74765
2017-08-03T01:01:14.013Z,74763
2017-08-03T01:01:23.865Z,74771
2017-08-03T01:01:33.995Z,74776
2017-08-03T01:01:44.125Z,74770
2017-08-03T01:01:54.257Z,74769
2017-08-03T01:02:04.381Z,74772
2017-08-03T01:02:14.501Z,74769
2017-08-03T01:02:24.629Z,74766
2017-08-03T01:02:34.471Z,74769
2017-08-03T01:02:44.317Z,74764
2017-08-03T01:02:54.152Z,74764
2017-08-03T01:03:03.696Z,74765
2017-08-03T01:03:13.831Z,74763
2017-08-03T01:03:23.969Z,74764
2017-08-03T01:03:34.093Z,74764
2017-08-03T01:03:44.236Z,74764
2017-08-03T01:03:54.360Z,74764
2017-08-03T01:04:04.499Z,74767
2017-08-03T01:04:14.354Z,74765
2017-08-03T01:04:24.468Z,74766
2017-08-03T01:04:34.289Z,74768
2017-08-03T01:04:44.420Z,74770
2017-08-03T01:04:54.549Z,74770
2017-08-03T01:05:04.391Z,74774
2017-08-03T01:05:14.519Z,74773
2017-08-03T01:05:24.637Z,74767
2017-08-03T01:05:34.180Z,74773
2017-08-03T01:05:44.308Z,74770
2017-08-03T01:05:53.876Z,74766
2017-08-03T01:06:03.723Z,74765
2017-08-03T01:06:13.845Z,74764
2017-08-03T01:06:23.677Z,74764
2017-08-03T01:06:33.784Z,74767
2017-08-03T01:06:43.908Z,74768
2017-08-03T01:06:54.030Z,74769
2017-08-03T01:07:04.151Z,74768
2017-08-03T01:07:14.285Z,74770
2017-08-03T01:07:24.414Z,74769
2017-08-03T01:07:34.544Z,74767
2017-08-03T01:07:44.674Z,74769
2017-08-03T01:07:54.519Z,74769
2017-08-03T01:08:04.357Z,74770
2017-08-03T01:08:14.484Z,74771
2017-08-03T01:08:24.615Z,74770
2017-08-03T01:08:34.160Z,74771
2017-08-03T01:08:44.281Z,74769
2017-08-03T01:08:54.140Z,74770
2017-08-03T01:09:03.983Z,74769
2017-08-03T01:09:14.114Z,74770
2017-08-03T01:09:24.235Z,74774
2017-08-03T01:09:34.074Z,74774
2017-08-03T01:09:44.205Z,74772
2017-08-03T01:09:54.042Z,74771
2017-08-03T01:10:04.197Z,74773
2017-08-03T01:10:14.311Z,74775
2017-08-03T01:10:23.870Z,74773
2017-08-03T01:10:33.722Z,74768
2017-08-03T01:10:43.563Z,74773
2017-08-03T01:10:53.675Z,74770
2017-08-03T01:11:03.806Z,74767
2017-08-03T01:11:13.948Z,74771
2017-08-03T01:11:23.790Z,74771
2017-08-03T01:11:33.048Z,74767
2017-08-03T01:11:43.184Z,74766
2017-08-03T01:11:53.028Z,74767
2017-08-03T01:12:02.858Z,74768
2017-08-03T01:12:13.013Z,74770
2017-08-03T01:12:22.857Z,74768
2017-08-03T01:12:32.694Z,74768
2017-08-03T01:12:42.823Z,74766
2017-08-03T01:12:52.945Z,74767
2017-08-03T01:13:03.067Z,74769
2017-08-03T01:13:13.189Z,74769
2017-08-03T01:13:23.302Z,74768
2017-08-03T01:13:33.152Z,74770
2017-08-03T01:13:42.992Z,74768
2017-08-03T01:13:53.105Z,74770
2017-08-03T01:14:03.241Z,74774
2017-08-03T01:14:13.073Z,74772
2017-08-03T01:14:23.198Z,74765
2017-08-03T01:14:33.306Z,74762
2017-08-03T01:14:43.142Z,74766
2017-08-03T01:14:53.247Z,74766
2017-08-03T01:15:03.094Z,74773
2017-08-03T01:15:12.938Z,74774
2017-08-03T01:15:22.766Z,74772
2017-08-03T01:15:32.589Z,74765
2017-08-03T01:15:42.708Z,74768
2017-08-03T01:15:52.830Z,74766
2017-08-03T01:16:02.968Z,74764
2017-08-03T01:16:13.078Z,74761
2017-08-03T01:16:23.200Z,74763
2017-08-03T01:16:33.338Z,74762
2017-08-03T01:16:43.461Z,74765
2017-08-03T01:16:53.574Z,74765
2017-08-03T01:17:03.397Z,74766
2017-08-03T01:17:13.534Z,74769
2017-08-03T01:17:23.663Z,74770
2017-08-03T01:17:33.512Z,74771
2017-08-03T01:17:43.644Z,74771
2017-08-03T01:17:53.776Z,74775
2017-08-03T01:18:03.903Z,74777
2017-08-03T01:18:14.018Z,74776
2017-08-03T01:18:24.149Z,74773
2017-08-03T01:18:33.692Z,74770
2017-08-03T01:18:43.821Z,74764
2017-08-03T01:18:53.958Z,74764
2017-08-03T01:19:04.079Z,74758
2017-08-03T01:19:13.901Z,74758
2017-08-03T01:19:23.721Z,74758
2017-08-03T01:19:33.853Z,74764
2017-08-03T01:19:43.982Z,74765
2017-08-03T01:19:54.100Z,74767
2017-08-03T01:20:04.220Z,74769
2017-08-03T01:20:14.056Z,74767
2017-08-03T01:20:24.178Z,74769
2017-08-03T01:20:34.018Z,74770
2017-08-03T01:20:44.139Z,74771
2017-08-03T01:20:53.971Z,74772
2017-08-03T01:21:04.081Z,74777
2017-08-03T01:21:13.938Z,74774
2017-08-03T01:21:24.067Z,74770
2017-08-03T01:21:34.195Z,74770
2017-08-03T01:21:44.027Z,74773
2017-08-03T01:21:54.155Z,74769
2017-08-03T01:22:04.269Z,74770
2017-08-03T01:22:14.111Z,74763
2017-08-03T01:22:24.240Z,74767
2017-08-03T01:22:34.360Z,74759
2017-08-03T01:22:44.204Z,74764
2017-08-03T01:22:54.039Z,74761
2017-08-03T01:23:03.878Z,74767
2017-08-03T01:23:14.015Z,74768
2017-08-03T01:23:24.136Z,74766
2017-08-03T01:23:34.270Z,74767
2017-08-03T01:23:44.401Z,74767
2017-08-03T01:23:53.647Z,74763
2017-08-03T01:24:03.487Z,74767
2017-08-03T01:24:13.621Z,74763
2017-08-03T01:24:23.456Z,74759
2017-08-03T01:24:33.577Z,74754
2017-08-03T01:24:43.142Z,74762
2017-08-03T01:24:53.281Z,74769
2017-08-03T01:25:03.117Z,74767
2017-08-03T01:25:13.251Z,74763
2017-08-03T01:25:23.094Z,74757
2017-08-03T01:25:33.224Z,74755
2017-08-03T01:25:42.789Z,74744
2017-08-03T01:25:52.636Z,74746
2017-08-03T01:26:02.765Z,74747
2017-08-03T01:26:12.887Z,74746
2017-08-03T01:26:22.724Z,74757
2017-08-03T01:26:32.852Z,74763
2017-08-03T01:26:42.684Z,74769
2017-08-03T01:26:52.545Z,74767
2017-08-03T01:27:02.104Z,74760
2017-08-03T01:27:11.942Z,74763
2017-08-03T01:27:22.063Z,74763
2017-08-03T01:27:31.594Z,74766
2017-08-03T01:27:41.143Z,74767
2017-08-03T01:27:50.982Z,74759
2017-08-03T01:28:01.106Z,74758
2017-08-03T01:28:11.234Z,74756
2017-08-03T01:28:21.378Z,74753
2017-08-03T01:28:31.490Z,74748
2017-08-03T01:28:41.607Z,74743
2017-08-03T01:28:51.749Z,74744
2017-08-03T01:29:01.872Z,74747
2017-08-03T01:29:11.997Z,74749
2017-08-03T01:29:22.130Z,74747
2017-08-03T01:29:31.949Z,74749
2017-08-03T01:29:41.792Z,74748
2017-08-03T01:29:51.623Z,74741
2017-08-03T01:30:01.750Z,74746
2017-08-03T01:30:11.885Z,74744
2017-08-03T01:30:22.013Z,74744
2017-08-03T01:30:32.138Z,74747
2017-08-03T01:30:42.265Z,74746
2017-08-03T01:30:52.429Z,74746
2017-08-03T01:31:02.285Z,74748
2017-08-03T01:31:12.410Z,74750
2017-08-03T01:31:22.555Z,74748
2017-08-03T01:31:32.687Z,74748
2017-08-03T01:31:42.816Z,74740
2017-08-03T01:31:52.654Z,74742
2017-08-03T01:32:02.772Z,74743
2017-08-03T01:32:12.321Z,74741
2017-08-03T01:32:22.440Z,74754
2017-08-03T01:32:31.982Z,74763
2017-08-03T01:32:42.116Z,74767
2017-08-03T01:32:51.956Z,74769
2017-08-03T01:33:02.099Z,74767
2017-08-03T01:33:12.230Z,74768
2017-08-03T01:33:22.360Z,74766
2017-08-03T01:33:32.481Z,74767
2017-08-03T01:33:42.599Z,74756
2017-08-03T01:33:52.415Z,74749
2017-08-03T01:34:02.251Z,74746
2017-08-03T01:34:12.388Z,74751
2017-08-03T01:34:22.235Z,74749
2017-08-03T01:34:32.366Z,74750
2017-08-03T01:34:42.503Z,74750
2017-08-03T01:34:52.330Z,74752
2017-08-03T01:35:02.160Z,74755
2017-08-03T01:35:12.007Z,74750
2017-08-03T01:35:22.155Z,74749
2017-08-03T01:35:32.295Z,74756
2017-08-03T01:35:42.423Z,74762
2017-08-03T01:35:52.546Z,74770
2017-08-03T01:36:02.677Z,74769
2017-08-03T01:36:12.808Z,74773
2017-08-03T01:36:22.933Z,74771
2017-08-03T01:36:32.779Z,74759
2017-08-03T01:36:42.891Z,74748
2017-08-03T01:36:52.723Z,74743
2017-08-03T01:37:02.852Z,74742
2017-08-03T01:37:12.994Z,74725
2017-08-03T01:37:22.836Z,74750
2017-08-03T01:37:32.983Z,74751
2017-08-03T01:37:43.109Z,74753
2017-08-03T01:37:52.958Z,74754
2017-08-03T01:38:03.079Z,74757
2017-08-03T01:38:13.211Z,74760
2017-08-03T01:38:23.323Z,74758
2017-08-03T01:38:33.148Z,74763
2017-08-03T01:38:43.252Z,74760
2017-08-03T01:38:53.369Z,74757
2017-08-03T01:39:03.215Z,74753
2017-08-03T01:39:13.067Z,74756
2017-08-03T01:39:22.898Z,74748
2017-08-03T01:39:32.726Z,74750
2017-08-03T01:39:42.570Z,74747
2017-08-03T01:39:52.698Z,74751
2017-08-03T01:40:02.816Z,74747
2017-08-03T01:40:12.954Z,74750
2017-08-03T01:40:23.067Z,74747
2017-08-03T01:40:33.187Z,74753
2017-08-03T01:40:42.740Z,74752
2017-08-03T01:40:52.856Z,74751
2017-08-03T01:41:02.970Z,74745
2017-08-03T01:41:13.085Z,74746
2017-08-03T01:41:23.201Z,74747
2017-08-03T01:41:33.325Z,74749
2017-08-03T01:41:43.449Z,74746
2017-08-03T01:41:53.011Z,74740
2017-08-03T01:42:02.280Z,74745
2017-08-03T01:42:12.403Z,74751
2017-08-03T01:42:22.533Z,74749
2017-08-03T01:42:32.644Z,74750
2017-08-03T01:42:42.470Z,74745
2017-08-03T01:42:52.304Z,74739
2017-08-03T01:43:02.151Z,74741
2017-08-03T01:43:12.266Z,74738
2017-08-03T01:43:22.110Z,74734
2017-08-03T01:43:32.231Z,74733
2017-08-03T01:43:42.065Z,74733
2017-08-03T01:43:52.181Z,74737
2017-08-03T01:44:02.313Z,74741
2017-08-03T01:44:12.440Z,74748
2017-08-03T01:44:22.555Z,74748
2017-08-03T01:44:32.680Z,74747
2017-08-03T01:44:42.514Z,74747
2017-08-03T01:44:52.649Z,74746
2017-08-03T01:45:02.489Z,74744
2017-08-03T01:45:12.333Z,74747
2017-08-03T01:45:22.177Z,74745
2017-08-03T01:45:32.299Z,74742
2017-08-03T01:45:42.427Z,74744
2017-08-03T01:45:52.263Z,74738
2017-08-03T01:46:02.398Z,74747
2017-08-03T01:46:12.533Z,74749
2017-08-03T01:46:22.655Z,74749
2017-08-03T01:46:32.503Z,74747
2017-08-03T01:46:42.626Z,74750
2017-08-03T01:46:52.749Z,74743
2017-08-03T01:47:02.890Z,74741
2017-08-03T01:47:13.007Z,74735
2017-08-03T01:47:22.554Z,74737
2017-08-03T01:47:32.681Z,74743
2017-08-03T01:47:42.802Z,74732
2017-08-03T01:47:52.632Z,74739
2017-08-03T01:48:02.486Z,74740
2017-08-03T01:48:12.315Z,74746
2017-08-03T01:48:22.168Z,74744
2017-08-03T01:48:32.290Z,74741
2017-08-03T01:48:42.408Z,74737
2017-08-03T01:48:52.517Z,74741
2017-08-03T01:49:02.355Z,74734
2017-08-03T01:49:12.193Z,74737
2017-08-03T01:49:22.022Z,74741
2017-08-03T01:49:32.166Z,74749
2017-08-03T01:49:42.286Z,74749
2017-08-03T01:49:52.399Z,74744
2017-08-03T01:50:02.228Z,74746
2017-08-03T01:50:12.362Z,74741
2017-08-03T01:50:22.484Z,74743
2017-08-03T01:50:32.622Z,74739
2017-08-03T01:50:42.471Z,74736
2017-08-03T01:50:52.594Z,74738
2017-08-03T01:51:02.417Z,74740
2017-08-03T01:51:11.958Z,74743
2017-08-03T01:51:22.094Z,74739
2017-08-03T01:51:31.939Z,74739
2017-08-03T01:51:42.059Z,74740
2017-08-03T01:51:52.207Z,74750
2017-08-03T01:52:02.343Z,74750
2017-08-03T01:52:12.180Z,74753
2017-08-03T01:52:22.288Z,74754
2017-08-03T01:52:32.128Z,74745
2017-08-03T01:52:42.251Z,74744
2017-08-03T01:52:52.089Z,74746
2017-08-03T01:53:02.216Z,74750
2017-08-03T01:53:12.058Z,74749
2017-08-03T01:53:22.188Z,74745
2017-08-03T01:53:32.311Z,74744
2017-08-03T01:53:42.425Z,74746
2017-08-03T01:53:52.275Z,74745
2017-08-03T01:54:02.405Z,74739
2017-08-03T01:54:12.533Z,74738
2017-08-03T01:54:22.080Z,74741
2017-08-03T01:54:31.901Z,74740
2017-08-03T01:54:42.024Z,74742
2017-08-03T01:54:52.157Z,74736
2017-08-03T01:55:02.269Z,74728
2017-08-03T01:55:12.104Z,74733
2017-08-03T01:55:22.229Z,74732
2017-08-03T01:55:32.356Z,74742
2017-08-03T01:55:42.480Z,74746
2017-08-03T01:55:52.609Z,74742
2017-08-03T01:56:02.168Z,74739
2017-08-03T01:56:12.312Z,74737
2017-08-03T01:56:22.143Z,74728
2017-08-03T01:56:31.988Z,74728
2017-08-03T01:56:41.829Z,74730
2017-08-03T01:56:51.944Z,74733
2017-08-03T01:57:02.063Z,74736
2017-08-03T01:57:11.902Z,74739
2017-08-03T01:57:22.026Z,74738
2017-08-03T01:57:32.158Z,74738
2017-08-03T01:57:42.287Z,74739
2017-08-03T01:57:52.410Z,74735
2017-08-03T01:58:02.243Z,74743
2017-08-03T01:58:12.350Z,74742
2017-08-03T01:58:22.483Z,74735
2017-08-03T01:58:32.610Z,74733
2017-08-03T01:58:42.758Z,74730
2017-08-03T01:58:52.878Z,74733
2017-08-03T01:59:03.008Z,74743
2017-08-03T01:59:13.140Z,74741
2017-08-03T01:59:22.977Z,74737
2017-08-03T01:59:33.109Z,74732
2017-08-03T01:59:43.227Z,74728
2017-08-03T01:59:53.342Z,74734
2017-08-03T02:00:03.174Z,74729
2017-08-03T02:00:13.023Z,74741
2017-08-03T02:00:23.160Z,74740
2017-08-03T02:00:33.303Z,74743
2017-08-03T02:00:42.871Z,74748
2017-08-03T02:00:52.708Z,74745
2017-08-03T02:01:02.833Z,74748
2017-08-03T02:01:12.975Z,74756
2017-08-03T02:01:23.104Z,74762
2017-08-03T02:01:33.212Z,74753
2017-08-03T02:01:43.039Z,74740
2017-08-03T02:01:53.206Z,74743
2017-08-03T02:02:03.320Z,74737
2017-08-03T02:02:13.148Z,74735
2017-08-03T02:02:22.708Z,74732
2017-08-03T02:02:32.839Z,74731
2017-08-03T02:02:42.677Z,74731
2017-08-03T02:02:52.519Z,74731
2017-08-03T02:03:02.648Z,74730
2017-08-03T02:03:12.780Z,74725
2017-08-03T02:03:22.610Z,74725
2017-08-03T02:03:32.728Z,74726
2017-08-03T02:03:42.559Z,74732
2017-08-03T02:03:52.688Z,74735
2017-08-03T02:04:02.825Z,74733
2017-08-03T02:04:12.662Z,74731
2017-08-03T02:04:22.785Z,74731
2017-08-03T02:04:32.915Z,74729
2017-08-03T02:04:43.035Z,74731
2017-08-03T02:04:53.162Z,74731
2017-08-03T02:05:02.715Z,74734
2017-08-03T02:05:12.565Z,74731
2017-08-03T02:05:22.126Z,74733
2017-08-03T02:05:32.280Z,74732
2017-08-03T02:05:42.114Z,74735
2017-08-03T02:05:52.229Z,74737
2017-08-03T02:06:02.350Z,74737
2017-08-03T02:06:12.188Z,74730
2017-08-03T02:06:22.023Z,74728
2017-08-03T02:06:32.151Z,74737
2017-08-03T02:06:42.278Z,74744
2017-08-03T02:06:52.394Z,74739
2017-08-03T02:07:02.225Z,74732
2017-08-03T02:07:12.065Z,74729
2017-08-03T02:07:21.897Z,74726
2017-08-03T02:07:31.734Z,74728
2017-08-03T02:07:41.862Z,74733
2017-08-03T02:07:51.700Z,74738
2017-08-03T02:08:01.550Z,74739
2017-08-03T02:08:11.669Z,74742
2017-08-03T02:08:21.777Z,74738
2017-08-03T02:08:31.897Z,74736